createdAt,value
2022-11-13T00:01:48.365Z,30.23
2022-11-13T00:04:15.385Z,29.95
2022-11-13T00:06:42.509Z,29.52
2022-11-13T00:09:11.037Z,27.67
2022-11-13T00:11:38.361Z,30.00
2022-11-13T00:14:05.464Z,31.20
2022-11-13T00:16:32.557Z,31.00
2022-11-13T00:18:59.546Z,30.10
2022-11-13T00:21:30.262Z,30.30
2022-11-13T00:23:57.324Z,32.83
2022-11-13T00:26:25.659Z,32.90
2022-11-13T00:28:56.247Z,30.98
2022-11-13T00:31:23.297Z,30.60
2022-11-13T00:34:25.957Z,34.40
2022-11-13T00:36:37.814Z,29.00
2022-11-13T00:39:04.822Z,29.30
2022-11-13T00:41:31.801Z,37.15
2022-11-13T00:43:58.820Z,27.48
2022-11-13T00:46:25.896Z,37.75
2022-11-13T00:48:52.870Z,31.13
2022-11-13T00:51:19.932Z,30.70
2022-11-13T00:53:46.959Z,29.58
2022-11-13T00:56:14.086Z,31.38
2022-11-13T00:58:41.099Z,30.45
2022-11-13T01:01:10.211Z,31.25
2022-11-13T01:03:37.433Z,26.95
2022-11-13T01:06:16.747Z,31.70
2022-11-13T01:08:43.759Z,28.75
2022-11-13T01:11:12.358Z,24.65
2022-11-13T01:13:40.382Z,20.80
2022-11-13T01:16:08.738Z,26.33
2022-11-13T01:18:36.274Z,25.58
2022-11-13T01:21:07.352Z,27.13
2022-11-13T01:23:34.562Z,26.38
2022-11-13T01:26:05.680Z,26.67
2022-11-13T01:28:32.849Z,24.45
2022-11-13T01:30:59.860Z,26.38
2022-11-13T01:33:26.868Z,25.38
2022-11-13T01:35:53.877Z,31.45
2022-11-13T01:38:20.896Z,21.30
2022-11-13T01:40:48.360Z,24.65
2022-11-13T01:43:24.097Z,26.00
2022-11-13T01:46:06.164Z,25.48
2022-11-13T01:48:36.471Z,28.20
2022-11-13T01:51:05.171Z,25.80
2022-11-13T01:53:32.242Z,21.25
2022-11-13T01:55:59.861Z,26.02
2022-11-13T01:58:27.192Z,22.05
2022-11-13T02:00:54.469Z,27.25
2022-11-13T02:03:21.491Z,24.90
2022-11-13T02:05:48.529Z,21.13
2022-11-13T02:08:15.578Z,23.13
2022-11-13T02:10:42.667Z,25.75
2022-11-13T02:13:10.610Z,23.50
2022-11-13T02:15:37.941Z,24.70
2022-11-13T02:18:04.970Z,21.73
2022-11-13T02:20:36.012Z,22.73
2022-11-13T02:23:09.680Z,25.25
2022-11-13T02:25:37.982Z,25.67
2022-11-13T02:28:05.027Z,28.02
2022-11-13T02:30:34.855Z,23.35
2022-11-13T02:33:01.995Z,23.90
2022-11-13T02:35:31.796Z,24.67
2022-11-13T02:38:00.029Z,22.27
2022-11-13T02:40:27.706Z,24.05
2022-11-13T02:42:54.941Z,20.45
2022-11-13T02:45:22.291Z,24.20
2022-11-13T02:47:49.699Z,24.60
2022-11-13T02:50:18.100Z,21.20
2022-11-13T02:52:45.362Z,24.80
2022-11-13T02:55:12.476Z,23.17
2022-11-13T02:57:39.479Z,20.83
2022-11-13T03:00:10.690Z,31.52
2022-11-13T03:02:40.911Z,27.60
2022-11-13T03:05:12.858Z,25.50
2022-11-13T03:07:40.544Z,26.52
2022-11-13T03:10:07.910Z,20.25
2022-11-13T03:12:35.265Z,20.52
2022-11-13T03:15:02.282Z,26.20
2022-11-13T03:17:32.467Z,21.85
2022-11-13T03:19:59.565Z,22.50
2022-11-13T03:22:26.763Z,22.60
2022-11-13T03:24:53.780Z,24.45
2022-11-13T03:27:20.909Z,23.20
2022-11-13T03:29:47.980Z,23.88
2022-11-13T03:32:15.039Z,20.80
2022-11-13T03:34:42.708Z,23.98
2022-11-13T03:37:09.742Z,23.60
2022-11-13T03:39:36.749Z,22.00
2022-11-13T03:42:03.764Z,20.95
2022-11-13T03:44:30.765Z,25.00
2022-11-13T03:46:57.785Z,20.45
2022-11-13T03:49:24.799Z,22.58
2022-11-13T03:51:51.803Z,18.92
2022-11-13T03:54:18.828Z,21.95
2022-11-13T03:56:45.817Z,23.20
2022-11-13T03:59:12.818Z,19.05
2022-11-13T04:01:39.845Z,20.45
2022-11-13T04:04:06.918Z,18.70
2022-11-13T04:06:33.926Z,20.27
2022-11-13T04:09:00.982Z,22.23
2022-11-13T04:11:28.003Z,21.65
2022-11-13T04:13:55.030Z,20.83
2022-11-13T04:16:22.055Z,17.75
2022-11-13T04:18:49.036Z,18.83
2022-11-13T04:21:16.013Z,19.65
2022-11-13T04:23:43.025Z,18.92
2022-11-13T04:26:10.079Z,19.48
2022-11-13T04:28:37.185Z,15.90
2022-11-13T04:31:04.259Z,18.65
2022-11-13T04:33:31.248Z,17.02
2022-11-13T04:35:58.239Z,17.60
2022-11-13T04:38:25.379Z,17.05
2022-11-13T04:41:12.644Z,17.38
2022-11-13T04:43:39.709Z,16.83
2022-11-13T04:46:06.706Z,15.25
2022-11-13T04:48:33.853Z,16.17
2022-11-13T04:51:00.899Z,15.20
2022-11-13T04:53:27.952Z,14.82
2022-11-13T04:55:55.010Z,15.82
2022-11-13T04:58:21.997Z,15.63
2022-11-13T05:00:49.004Z,15.65
2022-11-13T05:03:16.021Z,14.70
2022-11-13T05:05:43.198Z,15.35
2022-11-13T05:08:10.615Z,15.10
2022-11-13T05:10:38.015Z,15.27
2022-11-13T05:13:05.020Z,14.80
2022-11-13T05:15:32.023Z,14.52
2022-11-13T05:17:59.106Z,17.55
2022-11-13T05:20:26.146Z,16.58
2022-11-13T05:22:53.191Z,12.88
2022-11-13T05:25:20.169Z,16.27
2022-11-13T05:27:47.174Z,14.90
2022-11-13T05:30:14.253Z,15.50
2022-11-13T05:32:41.298Z,14.48
2022-11-13T05:35:08.464Z,14.40
2022-11-13T05:37:35.477Z,13.70
2022-11-13T05:40:02.544Z,14.30
2022-11-13T05:42:29.611Z,17.05
2022-11-13T05:44:56.708Z,16.35
2022-11-13T05:47:23.682Z,14.35
2022-11-13T05:49:50.703Z,14.95
2022-11-13T05:52:17.700Z,13.02
2022-11-13T05:54:44.694Z,12.23
2022-11-13T05:57:11.711Z,14.90
2022-11-13T05:59:38.818Z,16.58
2022-11-13T06:02:05.865Z,14.45
2022-11-13T06:04:32.909Z,13.85
2022-11-13T06:06:59.972Z,16.70
2022-11-13T06:09:26.986Z,15.65
2022-11-13T06:11:53.956Z,12.90
2022-11-13T06:14:21.005Z,17.05
2022-11-13T06:16:48.000Z,16.00
2022-11-13T06:19:15.117Z,13.68
2022-11-13T06:21:42.346Z,15.65
2022-11-13T06:24:11.712Z,15.43
2022-11-13T06:26:39.105Z,12.73
2022-11-13T06:29:07.338Z,13.85
2022-11-13T06:31:35.598Z,15.20
2022-11-13T06:34:03.137Z,13.02
2022-11-13T06:36:34.373Z,13.65
2022-11-13T06:39:01.462Z,12.32
2022-11-13T06:41:31.041Z,12.90
2022-11-13T06:44:02.607Z,11.63
2022-11-13T06:46:30.842Z,18.63
2022-11-13T06:48:59.054Z,14.43
2022-11-13T06:51:28.027Z,14.75
2022-11-13T06:53:55.229Z,13.32
2022-11-13T06:56:22.537Z,15.07
2022-11-13T06:58:49.594Z,15.05
2022-11-13T07:01:18.107Z,14.93
2022-11-13T07:03:45.212Z,14.57
2022-11-13T07:06:14.926Z,15.93
2022-11-13T07:08:42.505Z,16.23
2022-11-13T07:11:15.385Z,14.80
2022-11-13T07:13:42.886Z,15.87
2022-11-13T07:16:17.114Z,14.85
2022-11-13T07:18:45.337Z,18.48
2022-11-13T07:21:13.561Z,15.48
2022-11-13T07:23:43.093Z,15.60
2022-11-13T07:26:13.041Z,16.67
2022-11-13T07:28:40.496Z,17.80
2022-11-13T07:31:08.081Z,18.45
2022-11-13T07:33:35.361Z,18.05
2022-11-13T07:36:02.387Z,16.13
2022-11-13T07:38:29.770Z,14.73
2022-11-13T07:40:58.885Z,17.13
2022-11-13T07:43:26.155Z,17.48
2022-11-13T07:45:54.611Z,19.73
2022-11-13T07:48:24.959Z,20.75
2022-11-13T07:50:52.113Z,19.52
2022-11-13T07:53:19.665Z,19.38
2022-11-13T07:55:46.792Z,17.60
2022-11-13T07:58:14.190Z,18.10
2022-11-13T08:00:41.274Z,19.38
2022-11-13T08:03:09.463Z,18.85
2022-11-13T08:05:36.550Z,18.20
2022-11-13T08:08:03.591Z,16.83
2022-11-13T08:10:31.045Z,20.58
2022-11-13T08:13:02.219Z,20.10
2022-11-13T08:15:29.714Z,17.98
2022-11-13T08:18:00.842Z,22.17
2022-11-13T08:20:28.991Z,19.05
2022-11-13T08:22:59.706Z,17.70
2022-11-13T08:25:26.940Z,19.50
2022-11-13T08:27:54.473Z,19.70
2022-11-13T08:30:22.004Z,17.75
2022-11-13T08:32:49.286Z,18.58
2022-11-13T08:35:19.521Z,22.48
2022-11-13T08:37:47.600Z,19.15
2022-11-13T08:40:14.804Z,20.92
2022-11-13T08:42:41.811Z,21.20
2022-11-13T08:45:09.226Z,19.42
2022-11-13T08:47:36.609Z,18.15
2022-11-13T08:50:04.051Z,21.92
2022-11-13T08:52:31.037Z,21.30
2022-11-13T08:54:58.270Z,20.85
2022-11-13T08:57:25.336Z,24.85
2022-11-13T08:59:52.476Z,24.98
2022-11-13T09:02:19.478Z,23.15
2022-11-13T09:04:46.572Z,26.77
2022-11-13T09:07:13.761Z,24.65
2022-11-13T09:09:40.793Z,25.60
2022-11-13T09:12:08.162Z,29.45
2022-11-13T09:14:35.884Z,25.85
2022-11-13T09:17:02.963Z,26.55
2022-11-13T09:19:29.969Z,28.08
2022-11-13T09:21:57.037Z,30.85
2022-11-13T09:24:24.060Z,28.48
2022-11-13T09:26:51.304Z,26.90
2022-11-13T09:29:18.313Z,28.27
2022-11-13T09:31:45.484Z,25.30
2022-11-13T09:34:12.579Z,27.15
2022-11-13T09:36:39.566Z,26.85
2022-11-13T09:39:06.758Z,25.92
2022-11-13T09:41:37.937Z,27.73
2022-11-13T09:44:07.273Z,27.95
2022-11-13T09:46:34.404Z,25.85
2022-11-13T09:49:07.616Z,27.42
2022-11-13T09:51:37.190Z,24.65
2022-11-13T09:54:08.393Z,23.77
2022-11-13T09:56:38.606Z,22.08
2022-11-13T09:59:22.386Z,23.92
2022-11-13T10:01:52.000Z,26.15
2022-11-13T10:04:22.517Z,23.38
2022-11-13T10:07:22.038Z,25.40
2022-11-13T10:09:54.967Z,24.67
2022-11-13T10:12:22.597Z,19.17
2022-11-13T10:14:51.773Z,24.30
2022-11-13T10:17:24.774Z,26.77
2022-11-13T10:19:55.994Z,23.97
2022-11-13T10:22:34.743Z,26.25
2022-11-13T10:25:25.313Z,29.48
2022-11-13T10:27:55.477Z,27.38
2022-11-13T10:30:22.589Z,25.23
2022-11-13T10:32:49.662Z,26.42
2022-11-13T10:35:28.794Z,21.75
2022-11-13T10:38:06.596Z,22.48
2022-11-13T10:40:38.715Z,21.35
2022-11-13T10:43:07.364Z,25.05
2022-11-13T10:45:34.483Z,19.98
2022-11-13T10:48:04.644Z,21.27
2022-11-13T10:50:33.132Z,22.42
2022-11-13T10:53:00.158Z,24.30
2022-11-13T10:55:27.469Z,20.73
2022-11-13T10:57:58.811Z,25.10
2022-11-13T11:00:30.621Z,21.50
2022-11-13T11:02:57.907Z,21.55
2022-11-13T11:05:28.824Z,21.88
2022-11-13T11:07:57.151Z,21.95
2022-11-13T11:10:35.897Z,21.45
2022-11-13T11:13:07.106Z,19.90
2022-11-13T11:15:49.369Z,18.52
2022-11-13T11:18:19.173Z,19.10
2022-11-13T11:20:49.604Z,24.55
2022-11-13T11:23:26.268Z,20.42
2022-11-13T11:25:57.838Z,26.33
2022-11-13T11:28:24.899Z,19.02
2022-11-13T11:30:53.847Z,19.17
2022-11-13T11:33:23.865Z,19.55
2022-11-13T11:35:54.533Z,18.08
2022-11-13T11:38:33.852Z,19.17
2022-11-13T11:41:15.004Z,18.48
2022-11-13T11:43:52.227Z,17.05
2022-11-13T11:46:22.206Z,15.48
2022-11-13T11:48:50.084Z,17.65
2022-11-13T11:51:38.894Z,18.95
2022-11-13T11:54:11.990Z,20.10
2022-11-13T11:56:47.589Z,19.27
2022-11-13T11:59:21.980Z,19.50
2022-11-13T12:02:15.320Z,20.25
2022-11-13T12:05:01.022Z,23.73
2022-11-13T12:07:33.506Z,17.58
2022-11-13T12:10:25.122Z,17.95
2022-11-13T12:12:58.446Z,17.77
2022-11-13T12:15:35.330Z,17.23
2022-11-13T12:18:06.681Z,18.77
2022-11-13T12:20:42.437Z,16.83
2022-11-13T12:23:09.488Z,20.10
2022-11-13T12:25:39.453Z,18.25
2022-11-13T12:28:21.341Z,17.30
2022-11-13T12:30:55.251Z,17.67
2022-11-13T12:35:51.529Z,15.93
2022-11-13T12:38:24.788Z,15.95
2022-11-13T12:40:56.078Z,16.85
2022-11-13T12:43:55.406Z,17.10
2022-11-13T12:46:22.654Z,17.25
2022-11-13T12:48:49.797Z,17.20
2022-11-13T12:51:18.022Z,15.75
2022-11-13T12:53:52.549Z,14.45
2022-11-13T12:56:28.323Z,16.35
2022-11-13T12:59:28.727Z,16.33
2022-11-13T13:01:49.593Z,16.45
2022-11-13T13:04:28.662Z,16.92
2022-11-13T13:07:07.752Z,18.52
2022-11-13T13:09:50.923Z,18.05
2022-11-13T13:12:33.424Z,15.27
2022-11-13T13:15:12.783Z,14.93
2022-11-13T13:17:40.975Z,17.17
2022-11-13T13:20:28.071Z,14.32
2022-11-13T13:22:56.448Z,17.98
2022-11-13T13:25:23.699Z,16.00
2022-11-13T13:27:58.406Z,15.15
2022-11-13T13:30:26.387Z,15.48
2022-11-13T13:33:20.943Z,15.18
2022-11-13T13:35:57.170Z,15.80
2022-11-13T13:38:33.641Z,16.98
2022-11-13T13:41:19.257Z,14.25
2022-11-13T13:44:00.131Z,14.93
2022-11-13T13:46:30.049Z,13.68
2022-11-13T13:49:02.723Z,16.38
2022-11-13T13:51:35.991Z,15.30
2022-11-13T13:54:06.515Z,14.40
2022-11-13T13:56:36.280Z,16.02
2022-11-13T13:59:03.617Z,15.63
2022-11-13T14:01:34.345Z,14.98
2022-11-13T14:04:27.606Z,15.07
2022-11-13T14:06:56.669Z,14.30
2022-11-13T14:09:32.810Z,13.45
2022-11-13T14:12:09.243Z,16.63
2022-11-13T14:14:39.349Z,15.40
2022-11-13T14:17:07.065Z,14.75
2022-11-13T14:19:34.136Z,15.90
2022-11-13T14:22:02.442Z,15.40
2022-11-13T14:24:34.323Z,16.33
2022-11-13T14:27:04.364Z,17.20
2022-11-13T14:29:48.470Z,15.43
2022-11-13T14:32:26.303Z,15.60
2022-11-13T14:34:54.493Z,15.75
2022-11-13T14:37:24.384Z,17.55
2022-11-13T14:39:51.970Z,17.80
2022-11-13T14:42:45.768Z,18.55
2022-11-13T14:45:18.998Z,17.23
2022-11-13T14:47:56.346Z,18.30
2022-11-13T14:50:27.851Z,15.90
2022-11-13T14:53:08.559Z,15.63
2022-11-13T14:55:50.007Z,19.25
2022-11-13T14:58:30.766Z,17.30
2022-11-13T15:00:59.043Z,25.02
2022-11-13T15:03:27.610Z,58.50
2022-11-13T15:05:54.673Z,90.50
2022-11-13T15:08:21.389Z,18.48
2022-11-13T15:10:48.447Z,93.47
2022-11-13T15:13:17.553Z,47.90
2022-11-13T15:15:44.220Z,21.67
2022-11-13T15:18:19.304Z,22.05
2022-11-13T15:20:46.057Z,22.33
2022-11-13T15:23:16.554Z,17.00
2022-11-13T15:25:43.260Z,18.10
2022-11-13T15:28:10.212Z,16.50
2022-11-13T15:30:36.959Z,18.58
2022-11-13T15:33:12.193Z,17.45
2022-11-13T15:35:38.813Z,16.42
2022-11-13T15:38:06.010Z,17.17
2022-11-13T15:40:32.898Z,18.45
2022-11-13T15:43:01.187Z,21.13
2022-11-13T15:45:27.917Z,19.42
2022-11-13T15:47:54.480Z,21.10
2022-11-13T15:50:21.156Z,18.88
2022-11-13T15:52:50.683Z,20.67
2022-11-13T15:55:28.755Z,17.27
2022-11-13T15:57:55.805Z,17.98
2022-11-13T16:00:27.901Z,17.67
2022-11-13T16:02:56.339Z,17.90
2022-11-13T16:05:28.968Z,20.55
2022-11-13T16:07:56.715Z,17.95
2022-11-13T16:10:25.137Z,18.92
2022-11-13T16:12:52.447Z,19.75
2022-11-13T16:15:19.658Z,16.30
2022-11-13T16:17:55.617Z,20.67
2022-11-13T16:20:22.348Z,23.05
2022-11-13T16:22:49.114Z,20.13
2022-11-13T16:25:17.965Z,20.17
2022-11-13T16:27:45.353Z,21.50
2022-11-13T16:30:16.829Z,19.05
2022-11-13T16:32:43.879Z,22.85
2022-11-13T16:35:14.908Z,21.15
2022-11-13T16:37:42.154Z,26.75
2022-11-13T16:40:18.051Z,21.05
2022-11-13T16:42:45.184Z,22.42
2022-11-13T16:45:12.179Z,23.95
2022-11-13T16:47:39.172Z,25.65
2022-11-13T16:50:12.748Z,27.40
2022-11-13T16:55:08.326Z,28.77
2022-11-13T16:57:35.338Z,27.90
2022-11-13T17:00:02.491Z,33.20
2022-11-13T17:02:29.530Z,28.60
2022-11-13T17:04:56.685Z,27.35
2022-11-13T17:07:23.923Z,27.38
2022-11-13T17:10:09.957Z,27.75
2022-11-13T17:12:38.738Z,26.77
2022-11-13T17:15:06.036Z,29.23
2022-11-13T17:17:33.096Z,25.90
2022-11-13T17:20:00.180Z,24.13
2022-11-13T17:22:27.151Z,30.70
2022-11-13T17:24:54.347Z,24.88
2022-11-13T17:27:21.364Z,27.13
2022-11-13T17:29:48.388Z,29.23
2022-11-13T17:32:16.478Z,26.75
2022-11-13T17:34:43.894Z,26.83
2022-11-13T17:37:10.941Z,25.35
2022-11-13T17:39:37.977Z,27.10
2022-11-13T17:42:05.106Z,25.52
2022-11-13T17:44:32.247Z,26.63
2022-11-13T17:46:59.269Z,24.75
2022-11-13T17:49:26.328Z,26.60
2022-11-13T17:51:53.335Z,29.85
2022-11-13T17:54:20.403Z,25.02
2022-11-13T17:56:47.475Z,28.42
2022-11-13T17:59:14.601Z,28.75
2022-11-13T18:01:41.688Z,27.60
2022-11-13T18:04:09.054Z,24.08
2022-11-13T18:06:36.113Z,23.08
2022-11-13T18:09:03.131Z,23.75
2022-11-13T18:11:30.578Z,24.95
2022-11-13T18:13:57.632Z,23.73
2022-11-13T18:16:26.878Z,24.95
2022-11-13T18:18:55.661Z,24.08
2022-11-13T18:21:27.486Z,24.88
2022-11-13T18:23:58.535Z,25.02
2022-11-13T18:26:25.804Z,24.13
2022-11-13T18:28:52.797Z,22.60
2022-11-13T18:31:20.425Z,24.60
2022-11-13T18:33:47.665Z,24.10
2022-11-13T18:36:14.980Z,23.70
2022-11-13T18:38:43.339Z,21.00
2022-11-13T18:41:15.324Z,23.48
2022-11-13T18:43:49.953Z,24.45
2022-11-13T18:46:17.700Z,25.35
2022-11-13T18:48:45.325Z,21.38
2022-11-13T18:51:16.440Z,24.67
2022-11-13T18:53:45.448Z,21.17
2022-11-13T18:56:14.024Z,20.42
2022-11-13T18:58:41.961Z,21.75
2022-11-13T19:01:10.334Z,22.73
2022-11-13T19:03:37.553Z,21.67
2022-11-13T19:06:09.850Z,25.83
2022-11-13T19:08:40.698Z,22.35
2022-11-13T19:11:18.028Z,20.67
2022-11-13T19:13:46.909Z,22.85
2022-11-13T19:16:15.421Z,24.15
2022-11-13T19:18:43.645Z,23.27
2022-11-13T19:21:13.491Z,24.55
2022-11-13T19:23:40.456Z,24.13
2022-11-13T19:26:09.105Z,20.52
2022-11-13T19:28:36.632Z,23.02
2022-11-13T19:31:12.648Z,24.00
2022-11-13T19:33:40.047Z,22.40
2022-11-13T19:36:12.230Z,21.27
2022-11-13T19:38:39.565Z,20.10
2022-11-13T19:41:07.210Z,20.67
2022-11-13T19:43:35.004Z,19.50
2022-11-13T19:46:06.054Z,18.88
2022-11-13T19:48:33.186Z,19.20
2022-11-13T19:51:10.036Z,18.83
2022-11-13T19:53:37.939Z,20.60
2022-11-13T19:56:05.571Z,29.20
2022-11-13T19:58:32.834Z,21.33
2022-11-13T20:00:59.489Z,26.70
2022-11-13T20:03:27.325Z,22.90
2022-11-13T20:05:55.680Z,23.13
2022-11-13T20:08:26.806Z,21.67
2022-11-13T20:11:00.169Z,22.23
2022-11-13T20:13:26.838Z,25.73
2022-11-13T20:15:54.694Z,24.50
2022-11-13T20:18:21.332Z,22.50
2022-11-13T20:20:54.490Z,25.75
2022-11-13T20:23:21.596Z,19.77
2022-11-13T20:25:56.207Z,21.77
2022-11-13T20:28:24.002Z,29.08
2022-11-13T20:30:51.486Z,26.15
2022-11-13T20:33:22.311Z,32.53
2022-11-13T20:35:55.514Z,24.10
2022-11-13T20:38:22.160Z,26.70
2022-11-13T20:40:48.849Z,25.95
2022-11-13T20:43:15.457Z,22.77
2022-11-13T20:45:42.169Z,25.83
2022-11-13T20:48:08.787Z,23.38
2022-11-13T20:50:36.496Z,25.17
2022-11-13T20:53:03.721Z,29.52
2022-11-13T20:55:30.649Z,23.95
2022-11-13T20:57:57.836Z,29.75
2022-11-13T21:00:24.498Z,26.95
2022-11-13T21:02:51.884Z,31.77
2022-11-13T21:05:18.553Z,29.67
2022-11-13T21:07:45.158Z,29.38
2022-11-13T21:10:11.787Z,27.33
2022-11-13T21:12:38.370Z,28.45
2022-11-13T21:15:05.477Z,23.33
2022-11-13T21:17:32.141Z,27.77
2022-11-13T21:19:58.749Z,31.10
2022-11-13T21:22:25.340Z,29.65
2022-11-13T21:24:51.992Z,26.08
2022-11-13T21:27:18.602Z,30.33
2022-11-13T21:29:45.188Z,29.17
2022-11-13T21:32:11.866Z,33.28
2022-11-13T21:34:38.450Z,31.08
2022-11-13T21:37:05.115Z,25.65
2022-11-13T21:39:32.764Z,27.92
2022-11-13T21:41:59.367Z,25.73
2022-11-13T21:44:25.966Z,27.98
2022-11-13T21:46:52.596Z,26.70
2022-11-13T21:49:19.298Z,29.35
2022-11-13T21:51:45.888Z,26.77
2022-11-13T21:54:12.542Z,27.25
2022-11-13T21:56:39.360Z,27.77
2022-11-13T21:59:06.961Z,30.20
2022-11-13T22:01:38.377Z,27.05
2022-11-13T22:04:06.401Z,31.25
2022-11-13T22:06:36.234Z,30.90
2022-11-13T22:09:12.922Z,30.85
2022-11-13T22:11:39.789Z,27.90
2022-11-13T22:14:06.793Z,36.50
2022-11-13T22:16:40.953Z,29.08
2022-11-13T22:19:12.277Z,24.90
2022-11-13T22:21:39.955Z,25.08
2022-11-13T22:24:07.477Z,29.63
2022-11-13T22:26:38.121Z,26.33
2022-11-13T22:29:04.843Z,29.50
2022-11-13T22:31:32.565Z,32.80
2022-11-13T22:33:59.333Z,25.70
2022-11-13T22:36:34.464Z,28.75
2022-11-13T22:39:01.690Z,31.38
2022-11-13T22:41:31.323Z,24.48
2022-11-13T22:44:00.571Z,25.85
2022-11-13T22:46:29.925Z,30.75
2022-11-13T22:48:57.909Z,36.78
2022-11-13T22:51:27.582Z,23.50
2022-11-13T22:54:02.178Z,24.92
2022-11-13T22:56:31.458Z,30.63
2022-11-13T22:59:00.366Z,29.15
2022-11-13T23:01:28.954Z,27.92
2022-11-13T23:03:57.631Z,25.10
2022-11-13T23:06:26.655Z,29.77
2022-11-13T23:08:53.647Z,25.17
2022-11-13T23:11:23.845Z,26.60
2022-11-13T23:13:53.242Z,24.15
2022-11-13T23:16:21.230Z,26.85
2022-11-13T23:18:48.284Z,29.00
2022-11-13T23:21:15.302Z,28.88
2022-11-13T23:23:42.167Z,26.35
2022-11-13T23:26:10.343Z,31.98
2022-11-13T23:28:37.269Z,24.38
2022-11-13T23:31:04.544Z,22.10
2022-11-13T23:33:31.856Z,23.02
2022-11-13T23:35:58.833Z,20.20
2022-11-13T23:38:25.525Z,26.58
2022-11-13T23:40:56.347Z,23.90
2022-11-13T23:43:36.475Z,25.45
2022-11-13T23:46:10.615Z,25.88
2022-11-13T23:48:39.799Z,21.70
2022-11-13T23:51:06.987Z,35.35
2022-11-13T23:53:33.688Z,23.75
2022-11-13T23:56:00.402Z,27.40
2022-11-13T23:58:27.489Z,25.33
